sensor_id;sensor_type;location;lat;lon;timestamp;P1;durP1;ratioP1;P2;durP2;ratioP2
30466;SDS011;17258;52.560;13.046;2022-10-13T00:03:05;4.78;;;4.35;;
30466;SDS011;17258;52.560;13.046;2022-10-13T00:13:06;5.68;;;5.00;;
30466;SDS011;17258;52.560;13.046;2022-10-13T00:23:08;4.55;;;4.15;;
30466;SDS011;17258;52.560;13.046;2022-10-13T00:33:09;4.32;;;4.00;;
30466;SDS011;17258;52.560;13.046;2022-10-13T00:43:24;5.25;;;4.75;;
30466;SDS011;17258;52.560;13.046;2022-10-13T00:53:45;4.78;;;4.38;;
30466;SDS011;17258;52.560;13.046;2022-10-13T01:03:47;4.82;;;3.85;;
30466;SDS011;17258;52.560;13.046;2022-10-13T01:35:11;6.15;;;4.00;;
30466;SDS011;17258;52.560;13.046;2022-10-13T01:45:30;6.00;;;4.18;;
30466;SDS011;17258;52.560;13.046;2022-10-13T01:55:50;9.05;;;2.33;;
30466;SDS011;17258;52.560;13.046;2022-10-13T02:05:59;3.30;;;2.97;;
30466;SDS011;17258;52.560;13.046;2022-10-13T02:16:12;4.93;;;2.78;;
30466;SDS011;17258;52.560;13.046;2022-10-13T02:26:14;2.63;;;2.42;;
30466;SDS011;17258;52.560;13.046;2022-10-13T02:36:15;3.87;;;3.17;;
30466;SDS011;17258;52.560;13.046;2022-10-13T02:46:16;3.73;;;2.90;;
30466;SDS011;17258;52.560;13.046;2022-10-13T02:56:16;3.33;;;2.90;;
30466;SDS011;17258;52.560;13.046;2022-10-13T03:06:18;3.30;;;2.83;;
30466;SDS011;17258;52.560;13.046;2022-10-13T03:16:18;2.73;;;2.53;;
30466;SDS011;17258;52.560;13.046;2022-10-13T03:26:19;3.10;;;2.55;;
30466;SDS011;17258;52.560;13.046;2022-10-13T03:36:20;3.75;;;2.75;;
30466;SDS011;17258;52.560;13.046;2022-10-13T03:46:21;4.00;;;2.90;;
30466;SDS011;17258;52.560;13.046;2022-10-13T03:56:26;3.95;;;3.65;;
30466;SDS011;17258;52.560;13.046;2022-10-13T04:06:27;3.55;;;3.25;;
30466;SDS011;17258;52.560;13.046;2022-10-13T04:16:30;3.15;;;2.85;;
30466;SDS011;17258;52.560;13.046;2022-10-13T04:26:32;4.25;;;3.17;;
30466;SDS011;17258;52.560;13.046;2022-10-13T04:36:34;3.72;;;2.50;;
30466;SDS011;17258;52.560;13.046;2022-10-13T04:46:35;3.17;;;2.88;;
30466;SDS011;17258;52.560;13.046;2022-10-13T04:56:36;3.67;;;3.37;;
30466;SDS011;17258;52.560;13.046;2022-10-13T05:06:37;3.67;;;3.37;;
30466;SDS011;17258;52.560;13.046;2022-10-13T05:16:40;3.65;;;3.35;;
30466;SDS011;17258;52.560;13.046;2022-10-13T05:26:40;4.40;;;3.70;;
30466;SDS011;17258;52.560;13.046;2022-10-13T05:36:41;3.83;;;3.40;;
30466;SDS011;17258;52.560;13.046;2022-10-13T05:46:42;3.80;;;3.47;;
30466;SDS011;17258;52.560;13.046;2022-10-13T05:56:44;3.53;;;2.97;;
30466;SDS011;17258;52.560;13.046;2022-10-13T06:07:22;3.92;;;3.15;;
30466;SDS011;17258;52.560;13.046;2022-10-13T06:17:23;7.28;;;2.97;;
30466;SDS011;17258;52.560;13.046;2022-10-13T06:27:24;4.33;;;2.70;;
30466;SDS011;17258;52.560;13.046;2022-10-13T06:37:24;2.83;;;2.63;;
30466;SDS011;17258;52.560;13.046;2022-10-13T06:47:26;3.50;;;3.10;;
30466;SDS011;17258;52.560;13.046;2022-10-13T06:57:27;4.68;;;3.58;;
30466;SDS011;17258;52.560;13.046;2022-10-13T07:07:27;5.43;;;3.17;;
30466;SDS011;17258;52.560;13.046;2022-10-13T07:17:28;3.83;;;3.47;;
30466;SDS011;17258;52.560;13.046;2022-10-13T07:27:29;4.83;;;4.30;;
30466;SDS011;17258;52.560;13.046;2022-10-13T07:37:29;4.57;;;4.13;;
30466;SDS011;17258;52.560;13.046;2022-10-13T07:47:30;4.22;;;3.90;;
30466;SDS011;17258;52.560;13.046;2022-10-13T07:57:31;6.77;;;4.90;;
30466;SDS011;17258;52.560;13.046;2022-10-13T08:07:31;4.60;;;4.20;;
30466;SDS011;17258;52.560;13.046;2022-10-13T08:17:32;10.23;;;4.40;;
30466;SDS011;17258;52.560;13.046;2022-10-13T08:27:33;3.15;;;2.92;;
30466;SDS011;17258;52.560;13.046;2022-10-13T08:37:34;4.75;;;4.13;;
30466;SDS011;17258;52.560;13.046;2022-10-13T08:57:46;7.15;;;4.30;;
30466;SDS011;17258;52.560;13.046;2022-10-13T09:07:47;5.15;;;4.65;;
30466;SDS011;17258;52.560;13.046;2022-10-13T09:18:06;4.57;;;3.58;;
30466;SDS011;17258;52.560;13.046;2022-10-13T09:28:13;5.20;;;4.38;;
30466;SDS011;17258;52.560;13.046;2022-10-13T09:38:21;6.95;;;5.57;;
30466;SDS011;17258;52.560;13.046;2022-10-13T09:48:25;6.97;;;5.35;;
30466;SDS011;17258;52.560;13.046;2022-10-13T09:58:28;10.15;;;5.57;;
30466;SDS011;17258;52.560;13.046;2022-10-13T10:09:18;7.30;;;6.53;;
30466;SDS011;17258;52.560;13.046;2022-10-13T10:19:11;7.97;;;5.40;;
30466;SDS011;17258;52.560;13.046;2022-10-13T10:39:51;6.38;;;5.47;;
30466;SDS011;17258;52.560;13.046;2022-10-13T10:50:19;10.77;;;5.57;;
30466;SDS011;17258;52.560;13.046;2022-10-13T11:00:21;8.32;;;5.28;;
30466;SDS011;17258;52.560;13.046;2022-10-13T11:10:22;7.47;;;6.47;;
30466;SDS011;17258;52.560;13.046;2022-10-13T11:30:42;8.85;;;5.88;;
30466;SDS011;17258;52.560;13.046;2022-10-13T11:51:26;6.60;;;5.38;;
30466;SDS011;17258;52.560;13.046;2022-10-13T12:01:31;12.05;;;5.43;;
30466;SDS011;17258;52.560;13.046;2022-10-13T12:11:32;3.93;;;3.47;;
30466;SDS011;17258;52.560;13.046;2022-10-13T12:21:46;7.82;;;5.28;;
30466;SDS011;17258;52.560;13.046;2022-10-13T12:31:52;6.45;;;3.70;;
30466;SDS011;17258;52.560;13.046;2022-10-13T12:41:54;3.58;;;3.22;;
30466;SDS011;17258;52.560;13.046;2022-10-13T12:52:19;11.20;;;4.38;;
30466;SDS011;17258;52.560;13.046;2022-10-13T13:02:23;4.70;;;4.25;;
30466;SDS011;17258;52.560;13.046;2022-10-13T13:12:28;6.35;;;4.40;;
30466;SDS011;17258;52.560;13.046;2022-10-13T13:22:29;4.20;;;3.80;;
30466;SDS011;17258;52.560;13.046;2022-10-13T13:32:30;11.60;;;3.67;;
30466;SDS011;17258;52.560;13.046;2022-10-13T13:42:31;4.33;;;3.27;;
30466;SDS011;17258;52.560;13.046;2022-10-13T13:52:32;7.03;;;3.70;;
30466;SDS011;17258;52.560;13.046;2022-10-13T14:02:32;5.37;;;3.70;;
30466;SDS011;17258;52.560;13.046;2022-10-13T14:12:33;6.60;;;3.30;;
30466;SDS011;17258;52.560;13.046;2022-10-13T14:22:37;5.18;;;3.58;;
30466;SDS011;17258;52.560;13.046;2022-10-13T14:32:38;3.08;;;2.83;;
30466;SDS011;17258;52.560;13.046;2022-10-13T14:42:39;3.50;;;2.72;;
30466;SDS011;17258;52.560;13.046;2022-10-13T14:52:41;3.28;;;2.40;;
30466;SDS011;17258;52.560;13.046;2022-10-13T15:02:42;3.80;;;2.00;;
30466;SDS011;17258;52.560;13.046;2022-10-13T15:12:42;2.33;;;2.03;;
30466;SDS011;17258;52.560;13.046;2022-10-13T15:22:43;8.13;;;2.53;;
30466;SDS011;17258;52.560;13.046;2022-10-13T15:32:43;5.40;;;1.93;;
30466;SDS011;17258;52.560;13.046;2022-10-13T15:42:47;3.22;;;2.55;;
30466;SDS011;17258;52.560;13.046;2022-10-13T15:52:48;6.60;;;2.80;;
30466;SDS011;17258;52.560;13.046;2022-10-13T16:02:49;5.13;;;3.00;;
30466;SDS011;17258;52.560;13.046;2022-10-13T16:12:50;6.90;;;2.90;;
30466;SDS011;17258;52.560;13.046;2022-10-13T16:22:52;4.57;;;3.07;;
30466;SDS011;17258;52.560;13.046;2022-10-13T16:32:52;7.20;;;3.60;;
30466;SDS011;17258;52.560;13.046;2022-10-13T16:42:53;9.55;;;2.38;;
30466;SDS011;17258;52.560;13.046;2022-10-13T16:52:54;2.73;;;2.33;;
30466;SDS011;17258;52.560;13.046;2022-10-13T17:02:55;4.03;;;3.53;;
30466;SDS011;17258;52.560;13.046;2022-10-13T17:12:55;7.50;;;6.50;;
30466;SDS011;17258;52.560;13.046;2022-10-13T17:22:56;21.33;;;12.30;;
30466;SDS011;17258;52.560;13.046;2022-10-13T17:32:57;15.73;;;12.07;;
30466;SDS011;17258;52.560;13.046;2022-10-13T17:42:57;13.67;;;12.13;;
30466;SDS011;17258;52.560;13.046;2022-10-13T17:52:58;10.87;;;8.70;;
30466;SDS011;17258;52.560;13.046;2022-10-13T18:02:59;12.32;;;10.07;;
30466;SDS011;17258;52.560;13.046;2022-10-13T18:12:59;11.10;;;8.30;;
30466;SDS011;17258;52.560;13.046;2022-10-13T18:23:00;11.13;;;8.17;;
30466;SDS011;17258;52.560;13.046;2022-10-13T18:33:00;11.87;;;9.37;;
30466;SDS011;17258;52.560;13.046;2022-10-13T18:43:01;11.80;;;9.43;;
30466;SDS011;17258;52.560;13.046;2022-10-13T18:53:02;15.83;;;11.83;;
30466;SDS011;17258;52.560;13.046;2022-10-13T19:03:03;9.88;;;8.00;;
30466;SDS011;17258;52.560;13.046;2022-10-13T19:13:04;8.90;;;7.38;;
30466;SDS011;17258;52.560;13.046;2022-10-13T19:23:05;8.37;;;7.07;;
30466;SDS011;17258;52.560;13.046;2022-10-13T19:33:06;11.33;;;6.90;;
30466;SDS011;17258;52.560;13.046;2022-10-13T19:43:08;6.95;;;6.28;;
30466;SDS011;17258;52.560;13.046;2022-10-13T19:53:09;7.97;;;7.18;;
30466;SDS011;17258;52.560;13.046;2022-10-13T20:03:11;8.15;;;7.15;;
30466;SDS011;17258;52.560;13.046;2022-10-13T20:13:13;8.27;;;7.18;;
30466;SDS011;17258;52.560;13.046;2022-10-13T20:23:13;10.07;;;7.53;;
30466;SDS011;17258;52.560;13.046;2022-10-13T20:33:14;7.80;;;6.70;;
30466;SDS011;17258;52.560;13.046;2022-10-13T20:43:15;8.80;;;7.63;;
30466;SDS011;17258;52.560;13.046;2022-10-13T20:53:16;7.73;;;7.03;;
30466;SDS011;17258;52.560;13.046;2022-10-13T21:03:16;7.80;;;7.10;;
30466;SDS011;17258;52.560;13.046;2022-10-13T21:13:19;9.68;;;7.88;;
30466;SDS011;17258;52.560;13.046;2022-10-13T21:23:19;9.45;;;8.13;;
30466;SDS011;17258;52.560;13.046;2022-10-13T21:33:20;8.00;;;7.20;;
30466;SDS011;17258;52.560;13.046;2022-10-13T21:43:23;10.38;;;6.63;;
30466;SDS011;17258;52.560;13.046;2022-10-13T21:53:24;7.78;;;6.97;;
30466;SDS011;17258;52.560;13.046;2022-10-13T22:03:25;8.97;;;8.00;;
30466;SDS011;17258;52.560;13.046;2022-10-13T22:13:25;9.05;;;8.15;;
30466;SDS011;17258;52.560;13.046;2022-10-13T22:23:26;8.07;;;7.30;;
30466;SDS011;17258;52.560;13.046;2022-10-13T22:33:27;8.73;;;7.82;;
30466;SDS011;17258;52.560;13.046;2022-10-13T22:43:27;9.93;;;8.83;;
30466;SDS011;17258;52.560;13.046;2022-10-13T22:53:29;9.27;;;8.13;;
30466;SDS011;17258;52.560;13.046;2022-10-13T23:03:30;17.77;;;12.82;;
30466;SDS011;17258;52.560;13.046;2022-10-13T23:13:31;12.98;;;8.93;;
30466;SDS011;17258;52.560;13.046;2022-10-13T23:23:32;12.17;;;8.97;;
30466;SDS011;17258;52.560;13.046;2022-10-13T23:33:33;10.32;;;8.18;;
30466;SDS011;17258;52.560;13.046;2022-10-13T23:43:34;8.53;;;7.17;;
30466;SDS011;17258;52.560;13.046;2022-10-13T23:53:35;7.40;;;6.73;;
